sensor_id;sensor_type;location;lat;lon;timestamp;pressure;altitude;pressure_sealevel;temperature;humidity
6136;BME280;24008;42.664;23.372;2024-01-11T00:01:56;95657.41;;;-6.06;93.26
6136;BME280;24008;42.664;23.372;2024-01-11T00:04:24;95649.94;;;-6.08;93.42
6136;BME280;24008;42.664;23.372;2024-01-11T00:06:51;95576.69;;;-6.51;93.13
6136;BME280;24008;42.664;23.372;2024-01-11T00:09:18;95595.66;;;-6.41;93.79
6136;BME280;24008;42.664;23.372;2024-01-11T00:11:44;95590.63;;;-6.38;93.65
6136;BME280;24008;42.664;23.372;2024-01-11T00:14:11;95567.53;;;-6.49;94.02
6136;BME280;24008;42.664;23.372;2024-01-11T00:16:38;95598.75;;;-6.27;93.82
6136;BME280;24008;42.664;23.372;2024-01-11T00:19:04;95648.03;;;-5.91;93.66
6136;BME280;24008;42.664;23.372;2024-01-11T00:21:32;95590.28;;;-6.14;94.19
6136;BME280;24008;42.664;23.372;2024-01-11T00:23:59;95571.38;;;-6.24;94.09
6136;BME280;24008;42.664;23.372;2024-01-11T00:26:29;95628.19;;;-5.94;93.83
6136;BME280;24008;42.664;23.372;2024-01-11T00:28:56;95554.25;;;-6.45;93.55
6136;BME280;24008;42.664;23.372;2024-01-11T00:31:22;95622.47;;;-6.02;93.39
6136;BME280;24008;42.664;23.372;2024-01-11T00:33:49;95605.47;;;-6.32;93.23
6136;BME280;24008;42.664;23.372;2024-01-11T00:36:17;95631.84;;;-6.19;93.21
6136;BME280;24008;42.664;23.372;2024-01-11T00:38:46;95628.56;;;-6.21;93.00
6136;BME280;24008;42.664;23.372;2024-01-11T00:41:13;95589.09;;;-6.48;92.83
6136;BME280;24008;42.664;23.372;2024-01-11T00:43:40;95543.00;;;-6.74;92.82
6136;BME280;24008;42.664;23.372;2024-01-11T00:46:07;95631.06;;;-6.24;93.08
6136;BME280;24008;42.664;23.372;2024-01-11T00:48:33;95588.31;;;-6.52;92.46
6136;BME280;24008;42.664;23.372;2024-01-11T00:51:00;95625.41;;;-6.35;92.52
6136;BME280;24008;42.664;23.372;2024-01-11T00:53:27;95626.38;;;-6.47;92.30
6136;BME280;24008;42.664;23.372;2024-01-11T00:55:57;95563.06;;;-6.89;92.54
6136;BME280;24008;42.664;23.372;2024-01-11T00:58:24;95614.09;;;-6.61;92.38
6136;BME280;24008;42.664;23.372;2024-01-11T01:00:50;95618.31;;;-6.64;92.47
6136;BME280;24008;42.664;23.372;2024-01-11T01:03:18;95613.25;;;-6.60;92.50
6136;BME280;24008;42.664;23.372;2024-01-11T01:05:45;95577.91;;;-6.83;92.44
6136;BME280;24008;42.664;23.372;2024-01-11T01:08:12;95609.22;;;-6.67;92.46
6136;BME280;24008;42.664;23.372;2024-01-11T01:10:38;95615.03;;;-6.71;92.52
6136;BME280;24008;42.664;23.372;2024-01-11T01:13:06;95559.91;;;-7.03;92.52
6136;BME280;24008;42.664;23.372;2024-01-11T01:15:33;95454.59;;;-7.65;92.38
6136;BME280;24008;42.664;23.372;2024-01-11T01:18:00;95610.81;;;-6.63;92.98
6136;BME280;24008;42.664;23.372;2024-01-11T01:20:26;95578.81;;;-6.88;92.79
6136;BME280;24008;42.664;23.372;2024-01-11T01:22:53;95571.38;;;-6.90;92.32
6136;BME280;24008;42.664;23.372;2024-01-11T01:25:19;95593.66;;;-6.85;92.59
6136;BME280;24008;42.664;23.372;2024-01-11T01:27:46;95606.66;;;-6.64;93.08
6136;BME280;24008;42.664;23.372;2024-01-11T01:30:14;95511.25;;;-7.22;92.67
6136;BME280;24008;42.664;23.372;2024-01-11T01:32:41;95612.44;;;-6.62;93.24
6136;BME280;24008;42.664;23.372;2024-01-11T01:35:08;95608.34;;;-6.64;92.96
6136;BME280;24008;42.664;23.372;2024-01-11T01:37:34;95581.28;;;-6.88;93.00
6136;BME280;24008;42.664;23.372;2024-01-11T01:40:01;95557.31;;;-6.94;93.12
6136;BME280;24008;42.664;23.372;2024-01-11T01:42:28;95599.34;;;-6.74;92.86
6136;BME280;24008;42.664;23.372;2024-01-11T01:44:55;95469.44;;;-7.59;92.99
6136;BME280;24008;42.664;23.372;2024-01-11T01:47:23;95586.28;;;-6.90;92.97
6136;BME280;24008;42.664;23.372;2024-01-11T01:49:50;95527.84;;;-7.24;92.83
6136;BME280;24008;42.664;23.372;2024-01-11T01:52:17;95577.19;;;-6.94;92.63
6136;BME280;24008;42.664;23.372;2024-01-11T01:54:45;95580.53;;;-6.97;92.75
6136;BME280;24008;42.664;23.372;2024-01-11T01:57:14;95577.22;;;-6.97;92.95
6136;BME280;24008;42.664;23.372;2024-01-11T01:59:42;95543.50;;;-7.16;92.92
6136;BME280;24008;42.664;23.372;2024-01-11T02:02:11;95579.66;;;-6.91;93.07
6136;BME280;24008;42.664;23.372;2024-01-11T02:04:40;95563.13;;;-6.95;92.42
6136;BME280;24008;42.664;23.372;2024-01-11T02:07:06;95567.25;;;-6.93;92.76
6136;BME280;24008;42.664;23.372;2024-01-11T02:09:34;95561.44;;;-6.90;92.53
6136;BME280;24008;42.664;23.372;2024-01-11T02:12:02;95558.97;;;-6.92;92.00
6136;BME280;24008;42.664;23.372;2024-01-11T02:14:30;95561.38;;;-6.87;91.58
6136;BME280;24008;42.664;23.372;2024-01-11T02:16:57;95563.91;;;-6.88;91.83
6136;BME280;24008;42.664;23.372;2024-01-11T02:19:24;95561.44;;;-6.90;91.57
6136;BME280;24008;42.664;23.372;2024-01-11T02:21:54;95516.22;;;-7.22;91.82
6136;BME280;24008;42.664;23.372;2024-01-11T02:24:23;95526.94;;;-7.16;91.39
6136;BME280;24008;42.664;23.372;2024-01-11T02:26:59;95555.69;;;-6.97;90.95
6136;BME280;24008;42.664;23.372;2024-01-11T02:29:26;95376.50;;;-8.10;91.34
6136;BME280;24008;42.664;23.372;2024-01-11T02:31:53;95555.81;;;-7.07;90.93
6136;BME280;24008;42.664;23.372;2024-01-11T02:34:21;95417.72;;;-7.97;90.80
6136;BME280;24008;42.664;23.372;2024-01-11T02:36:47;95556.72;;;-7.14;90.52
6136;BME280;24008;42.664;23.372;2024-01-11T02:39:16;95385.72;;;-8.23;90.78
6136;BME280;24008;42.664;23.372;2024-01-11T02:41:44;95527.16;;;-7.39;90.92
6136;BME280;24008;42.664;23.372;2024-01-11T02:44:11;95554.28;;;-7.19;90.43
6136;BME280;24008;42.664;23.372;2024-01-11T02:46:38;95392.25;;;-8.14;90.13
6136;BME280;24008;42.664;23.372;2024-01-11T02:49:05;95551.78;;;-7.17;91.21
6136;BME280;24008;42.664;23.372;2024-01-11T02:51:31;95519.78;;;-7.46;90.50
6136;BME280;24008;42.664;23.372;2024-01-11T02:53:59;95528.75;;;-7.32;90.88
6136;BME280;24008;42.664;23.372;2024-01-11T02:56:25;95379.16;;;-8.30;90.31
6136;BME280;24008;42.664;23.372;2024-01-11T02:58:53;95541.06;;;-7.24;91.07
6136;BME280;24008;42.664;23.372;2024-01-11T03:01:20;95481.06;;;-7.61;90.76
6136;BME280;24008;42.664;23.372;2024-01-11T03:03:47;95495.84;;;-7.52;90.99
6136;BME280;24008;42.664;23.372;2024-01-11T03:06:14;95503.28;;;-7.52;90.70
6136;BME280;24008;42.664;23.372;2024-01-11T03:08:43;95549.44;;;-7.31;90.88
6136;BME280;24008;42.664;23.372;2024-01-11T03:11:09;95509.09;;;-7.53;91.18
6136;BME280;24008;42.664;23.372;2024-01-11T03:13:36;95375.03;;;-8.31;91.12
6136;BME280;24008;42.664;23.372;2024-01-11T03:16:05;95543.63;;;-7.29;91.59
6136;BME280;24008;42.664;23.372;2024-01-11T03:18:31;95537.00;;;-7.28;91.11
6136;BME280;24008;42.664;23.372;2024-01-11T03:20:58;95513.97;;;-7.47;91.26
6136;BME280;24008;42.664;23.372;2024-01-11T03:23:25;95538.63;;;-7.27;91.22
6136;BME280;24008;42.664;23.372;2024-01-11T03:25:51;95527.03;;;-7.27;91.22
6136;BME280;24008;42.664;23.372;2024-01-11T03:28:18;95537.81;;;-7.28;91.28
6136;BME280;24008;42.664;23.372;2024-01-11T03:30:45;95545.31;;;-7.34;91.49
6136;BME280;24008;42.664;23.372;2024-01-11T03:33:13;95455.66;;;-7.87;90.78
6136;BME280;24008;42.664;23.372;2024-01-11T03:35:39;95535.38;;;-7.35;91.32
6136;BME280;24008;42.664;23.372;2024-01-11T03:38:09;95528.00;;;-7.38;90.75
6136;BME280;24008;42.664;23.372;2024-01-11T03:40:35;95495.91;;;-7.58;91.07
6136;BME280;24008;42.664;23.372;2024-01-11T03:43:02;95526.25;;;-7.30;91.52
6136;BME280;24008;42.664;23.372;2024-01-11T03:45:29;95402.06;;;-8.07;91.21
6136;BME280;24008;42.664;23.372;2024-01-11T03:47:56;95507.34;;;-7.46;91.15
6136;BME280;24008;42.664;23.372;2024-01-11T03:50:24;95530.41;;;-7.34;91.30
6136;BME280;24008;42.664;23.372;2024-01-11T03:52:51;95521.31;;;-7.36;91.41
6136;BME280;24008;42.664;23.372;2024-01-11T03:55:17;95451.50;;;-7.85;91.16
6136;BME280;24008;42.664;23.372;2024-01-11T03:57:44;95520.56;;;-7.41;91.08
6136;BME280;24008;42.664;23.372;2024-01-11T04:00:11;95523.91;;;-7.44;91.12
6136;BME280;24008;42.664;23.372;2024-01-11T04:02:38;95485.34;;;-7.77;91.40
6136;BME280;24008;42.664;23.372;2024-01-11T04:05:05;95497.63;;;-7.63;91.68
6136;BME280;24008;42.664;23.372;2024-01-11T04:07:33;95468.06;;;-7.87;91.81
6136;BME280;24008;42.664;23.372;2024-01-11T04:10:00;95523.19;;;-7.55;91.81
6136;BME280;24008;42.664;23.372;2024-01-11T04:12:26;95487.00;;;-7.79;91.93
6136;BME280;24008;42.664;23.372;2024-01-11T04:14:53;95524.00;;;-7.56;92.32
6136;BME280;24008;42.664;23.372;2024-01-11T04:17:20;95516.53;;;-7.53;91.99
6136;BME280;24008;42.664;23.372;2024-01-11T04:19:48;95513.22;;;-7.52;92.82
6136;BME280;24008;42.664;23.372;2024-01-11T04:22:14;95474.47;;;-7.65;92.88
6136;BME280;24008;42.664;23.372;2024-01-11T04:24:43;95466.22;;;-7.70;92.97
6136;BME280;24008;42.664;23.372;2024-01-11T04:27:10;95495.78;;;-7.46;92.34
6136;BME280;24008;42.664;23.372;2024-01-11T04:29:37;95504.06;;;-7.47;92.28
6136;BME280;24008;42.664;23.372;2024-01-11T04:32:16;95503.31;;;-7.53;92.57
6136;BME280;24008;42.664;23.372;2024-01-11T04:34:44;95501.66;;;-7.56;92.26
6136;BME280;24008;42.664;23.372;2024-01-11T04:37:11;95504.22;;;-7.64;92.10
6136;BME280;24008;42.664;23.372;2024-01-11T04:39:37;95425.38;;;-8.21;91.52
6136;BME280;24008;42.664;23.372;2024-01-11T04:42:06;95509.25;;;-7.73;92.36
6136;BME280;24008;42.664;23.372;2024-01-11T04:44:33;95507.59;;;-7.72;92.18
6136;BME280;24008;42.664;23.372;2024-01-11T04:47:00;95515.84;;;-7.67;92.13
6136;BME280;24008;42.664;23.372;2024-01-11T04:49:26;95515.00;;;-7.63;91.75
6136;BME280;24008;42.664;23.372;2024-01-11T04:51:53;95266.00;;;-9.21;92.11
6136;BME280;24008;42.664;23.372;2024-01-11T04:54:20;95512.53;;;-7.66;91.57
6136;BME280;24008;42.664;23.372;2024-01-11T04:56:47;95514.16;;;-7.62;92.05
6136;BME280;24008;42.664;23.372;2024-01-11T04:59:15;95467.16;;;-7.80;91.22
6136;BME280;24008;42.664;23.372;2024-01-11T05:01:41;94719.91;;;-12.44;90.76
6136;BME280;24008;42.664;23.372;2024-01-11T05:04:08;95492.78;;;-7.78;91.75
6136;BME280;24008;42.664;23.372;2024-01-11T05:06:35;95480.41;;;-7.84;91.36
6136;BME280;24008;42.664;23.372;2024-01-11T05:09:02;95474.69;;;-7.86;91.20
6136;BME280;24008;42.664;23.372;2024-01-11T05:11:30;95515.00;;;-7.63;91.90
6136;BME280;24008;42.664;23.372;2024-01-11T05:13:56;95511.72;;;-7.68;91.36
6136;BME280;24008;42.664;23.372;2024-01-11T05:16:25;95468.94;;;-7.94;91.21
6136;BME280;24008;42.664;23.372;2024-01-11T05:18:53;95471.41;;;-7.94;92.25
6136;BME280;24008;42.664;23.372;2024-01-11T05:21:20;95506.75;;;-7.70;91.43
6136;BME280;24008;42.664;23.372;2024-01-11T05:23:47;95504.34;;;-7.77;92.16
6136;BME280;24008;42.664;23.372;2024-01-11T05:26:15;95499.41;;;-7.80;91.07
6136;BME280;24008;42.664;23.372;2024-01-11T05:28:42;95494.47;;;-7.83;91.93
6136;BME280;24008;42.664;23.372;2024-01-11T05:31:10;95425.44;;;-8.29;91.33
6136;BME280;24008;42.664;23.372;2024-01-11T05:33:38;95408.22;;;-8.44;92.10
6136;BME280;24008;42.664;23.372;2024-01-11T05:36:05;95484.63;;;-7.89;92.09
6136;BME280;24008;42.664;23.372;2024-01-11T05:38:33;95477.22;;;-7.95;92.00
6136;BME280;24008;42.664;23.372;2024-01-11T05:41:00;95446.88;;;-8.23;92.14
6136;BME280;24008;42.664;23.372;2024-01-11T05:43:27;95482.25;;;-8.02;91.99
6136;BME280;24008;42.664;23.372;2024-01-11T05:45:53;95446.81;;;-8.17;92.07
6136;BME280;24008;42.664;23.372;2024-01-11T05:48:20;95480.50;;;-7.93;92.13
6136;BME280;24008;42.664;23.372;2024-01-11T05:50:48;95482.97;;;-7.89;92.28
6136;BME280;24008;42.664;23.372;2024-01-11T05:53:15;95477.94;;;-7.84;92.29
6136;BME280;24008;42.664;23.372;2024-01-11T05:55:42;95441.75;;;-8.07;91.96
6136;BME280;24008;42.664;23.372;2024-01-11T05:58:09;95400.63;;;-8.29;91.81
6136;BME280;24008;42.664;23.372;2024-01-11T06:00:36;95476.28;;;-7.82;92.35
6136;BME280;24008;42.664;23.372;2024-01-11T06:03:03;95464.75;;;-7.86;92.06
6136;BME280;24008;42.664;23.372;2024-01-11T06:05:30;95430.13;;;-8.00;92.48
6136;BME280;24008;42.664;23.372;2024-01-11T06:07:58;95402.25;;;-8.25;91.83
6136;BME280;24008;42.664;23.372;2024-01-11T06:10:24;95470.44;;;-7.77;91.90
6136;BME280;24008;42.664;23.372;2024-01-11T06:12:51;95441.59;;;-7.88;91.78
6136;BME280;24008;42.664;23.372;2024-01-11T06:15:17;95468.69;;;-7.69;91.80
6136;BME280;24008;42.664;23.372;2024-01-11T06:17:44;95448.03;;;-7.69;92.03
6136;BME280;24008;42.664;23.372;2024-01-11T06:20:11;95472.66;;;-7.49;92.14
6136;BME280;24008;42.664;23.372;2024-01-11T06:22:38;95476.81;;;-7.50;92.69
6136;BME280;24008;42.664;23.372;2024-01-11T06:25:07;95466.06;;;-7.52;92.10
6136;BME280;24008;42.664;23.372;2024-01-11T06:27:34;95460.16;;;-7.43;92.18
6136;BME280;24008;42.664;23.372;2024-01-11T06:30:00;95366.25;;;-7.81;92.92
6136;BME280;24008;42.664;23.372;2024-01-11T06:32:27;95460.56;;;-7.06;92.84
6136;BME280;24008;42.664;23.372;2024-01-11T06:34:54;95149.88;;;-8.64;93.01
6136;BME280;24008;42.664;23.372;2024-01-11T06:37:21;95196.81;;;-7.86;93.25
6136;BME280;24008;42.664;23.372;2024-01-11T06:39:48;95455.50;;;-5.42;93.64
6136;BME280;24008;42.664;23.372;2024-01-11T06:42:16;95454.50;;;-4.52;93.05
6136;BME280;24008;42.664;23.372;2024-01-11T06:44:42;95342.81;;;-4.41;90.53
6136;BME280;24008;42.664;23.372;2024-01-11T06:47:09;95438.88;;;-3.55;84.73
6136;BME280;24008;42.664;23.372;2024-01-11T06:49:38;95386.16;;;-3.15;80.30
6136;BME280;24008;42.664;23.372;2024-01-11T06:52:05;95439.03;;;-2.42;77.10
6136;BME280;24008;42.664;23.372;2024-01-11T06:54:32;95421.41;;;-2.39;74.16
6136;BME280;24008;42.664;23.372;2024-01-11T06:56:59;95242.50;;;-3.05;72.09
6136;BME280;24008;42.664;23.372;2024-01-11T06:59:27;95443.63;;;-1.51;69.79
6136;BME280;24008;42.664;23.372;2024-01-11T07:01:53;95427.94;;;-1.32;67.95
6136;BME280;24008;42.664;23.372;2024-01-11T07:04:20;95443.66;;;-1.27;66.57
6136;BME280;24008;42.664;23.372;2024-01-11T07:06:47;95446.72;;;-1.19;64.89
6136;BME280;24008;42.664;23.372;2024-01-11T07:09:14;95417.00;;;-1.06;63.71
6136;BME280;24008;42.664;23.372;2024-01-11T07:11:42;95451.06;;;-0.54;62.20
6136;BME280;24008;42.664;23.372;2024-01-11T07:14:09;95374.53;;;-0.44;60.61
6136;BME280;24008;42.664;23.372;2024-01-11T07:16:37;95386.63;;;-0.12;58.84
6136;BME280;24008;42.664;23.372;2024-01-11T07:19:04;95446.25;;;0.67;56.93
6136;BME280;24008;42.664;23.372;2024-01-11T07:21:31;95440.09;;;0.54;56.58
6136;BME280;24008;42.664;23.372;2024-01-11T07:23:58;95343.88;;;0.69;56.22
6136;BME280;24008;42.664;23.372;2024-01-11T07:26:25;95419.94;;;1.51;52.82
6136;BME280;24008;42.664;23.372;2024-01-11T07:28:52;95434.03;;;1.36;52.91
6136;BME280;24008;42.664;23.372;2024-01-11T07:31:20;95434.59;;;1.79;54.07
6136;BME280;24008;42.664;23.372;2024-01-11T07:33:48;95431.22;;;1.97;52.09
6136;BME280;24008;42.664;23.372;2024-01-11T07:36:15;95434.38;;;2.37;50.77
6136;BME280;24008;42.664;23.372;2024-01-11T07:38:42;95459.78;;;2.67;50.15
6136;BME280;24008;42.664;23.372;2024-01-11T07:41:09;95373.69;;;2.40;49.32
6136;BME280;24008;42.664;23.372;2024-01-11T07:43:35;95400.41;;;2.27;48.92
6136;BME280;24008;42.664;23.372;2024-01-11T07:46:02;95437.13;;;3.00;48.91
6136;BME280;24008;42.664;23.372;2024-01-11T07:48:31;95405.88;;;3.49;46.36
6136;BME280;24008;42.664;23.372;2024-01-11T07:50:59;95417.16;;;4.05;46.19
6136;BME280;24008;42.664;23.372;2024-01-11T07:53:26;95440.78;;;3.58;45.39
6136;BME280;24008;42.664;23.372;2024-01-11T07:55:52;95438.66;;;3.82;44.79
6136;BME280;24008;42.664;23.372;2024-01-11T07:58:19;95376.66;;;2.97;46.46
6136;BME280;24008;42.664;23.372;2024-01-11T08:00:47;95426.81;;;4.28;45.13
6136;BME280;24008;42.664;23.372;2024-01-11T08:03:14;95427.66;;;4.13;44.25
6136;BME280;24008;42.664;23.372;2024-01-11T08:05:41;95297.16;;;3.35;44.27
6136;BME280;24008;42.664;23.372;2024-01-11T08:08:10;95290.50;;;3.94;43.60
6136;BME280;24008;42.664;23.372;2024-01-11T08:10:36;95422.38;;;4.76;42.31
6136;BME280;24008;42.664;23.372;2024-01-11T08:13:03;95299.84;;;3.78;42.79
6136;BME280;24008;42.664;23.372;2024-01-11T08:15:30;95422.66;;;4.27;43.20
6136;BME280;24008;42.664;23.372;2024-01-11T08:17:58;95417.25;;;3.88;43.27
6136;BME280;24008;42.664;23.372;2024-01-11T08:20:26;95242.75;;;2.51;44.44
6136;BME280;24008;42.664;23.372;2024-01-11T08:22:52;95405.53;;;3.71;45.07
6136;BME280;24008;42.664;23.372;2024-01-11T08:25:20;95404.50;;;3.59;44.33
6136;BME280;24008;42.664;23.372;2024-01-11T08:27:48;95230.56;;;2.75;43.22
6136;BME280;24008;42.664;23.372;2024-01-11T08:30:15;95170.47;;;2.66;43.34
6136;BME280;24008;42.664;23.372;2024-01-11T08:32:42;95366.78;;;4.16;44.12
6136;BME280;24008;42.664;23.372;2024-01-11T08:35:09;95406.13;;;4.22;42.70
6136;BME280;24008;42.664;23.372;2024-01-11T08:37:37;95417.44;;;3.85;43.77
6136;BME280;24008;42.664;23.372;2024-01-11T08:40:04;95382.28;;;3.65;43.68
6136;BME280;24008;42.664;23.372;2024-01-11T08:42:32;95410.56;;;3.87;42.96
6136;BME280;24008;42.664;23.372;2024-01-11T08:44:59;95177.00;;;2.38;44.49
6136;BME280;24008;42.664;23.372;2024-01-11T08:47:32;95406.94;;;4.22;44.03
6136;BME280;24008;42.664;23.372;2024-01-11T08:49:59;95401.91;;;4.51;43.01
6136;BME280;24008;42.664;23.372;2024-01-11T08:52:25;95403.09;;;4.59;43.01
6136;BME280;24008;42.664;23.372;2024-01-11T08:54:52;95405.19;;;4.23;42.35
6136;BME280;24008;42.664;23.372;2024-01-11T08:57:19;95403.22;;;4.58;43.16
6136;BME280;24008;42.664;23.372;2024-01-11T08:59:47;95381.34;;;4.99;42.27
6136;BME280;24008;42.664;23.372;2024-01-11T09:02:13;95287.28;;;4.49;41.59
6136;BME280;24008;42.664;23.372;2024-01-11T09:04:40;95383.63;;;5.45;41.02
6136;BME280;24008;42.664;23.372;2024-01-11T09:07:07;95379.81;;;5.52;40.54
6136;BME280;24008;42.664;23.372;2024-01-11T09:09:33;95337.88;;;5.20;40.42
6136;BME280;24008;42.664;23.372;2024-01-11T09:12:00;95370.53;;;5.38;41.08
6136;BME280;24008;42.664;23.372;2024-01-11T09:14:28;95346.75;;;5.13;41.47
6136;BME280;24008;42.664;23.372;2024-01-11T09:16:56;95361.22;;;5.11;41.48
6136;BME280;24008;42.664;23.372;2024-01-11T09:19:22;95367.75;;;5.56;41.76
6136;BME280;24008;42.664;23.372;2024-01-11T09:21:49;95364.16;;;5.46;41.82
6136;BME280;24008;42.664;23.372;2024-01-11T09:24:16;95351.56;;;5.44;41.17
6136;BME280;24008;42.664;23.372;2024-01-11T09:26:43;95360.97;;;5.83;40.75
6136;BME280;24008;42.664;23.372;2024-01-11T09:29:09;95300.84;;;5.71;39.81
6136;BME280;24008;42.664;23.372;2024-01-11T09:31:36;95351.34;;;5.61;39.80
6136;BME280;24008;42.664;23.372;2024-01-11T09:34:05;95344.19;;;5.80;40.46
6136;BME280;24008;42.664;23.372;2024-01-11T09:36:33;95256.44;;;5.65;40.04
6136;BME280;24008;42.664;23.372;2024-01-11T09:39:00;95339.66;;;5.86;39.39
6136;BME280;24008;42.664;23.372;2024-01-11T09:41:28;95312.78;;;5.56;41.07
6136;BME280;24008;42.664;23.372;2024-01-11T09:44:00;95327.03;;;5.98;39.86
6136;BME280;24008;42.664;23.372;2024-01-11T09:46:27;95320.78;;;5.77;40.95
6136;BME280;24008;42.664;23.372;2024-01-11T09:48:55;95285.81;;;5.68;40.83
6136;BME280;24008;42.664;23.372;2024-01-11T09:51:25;95284.75;;;6.24;39.44
6136;BME280;24008;42.664;23.372;2024-01-11T09:53:53;95270.91;;;6.41;39.35
6136;BME280;24008;42.664;23.372;2024-01-11T09:56:21;95291.91;;;6.81;39.31
6136;BME280;24008;42.664;23.372;2024-01-11T09:58:50;95289.81;;;6.24;40.18
6136;BME280;24008;42.664;23.372;2024-01-11T10:01:17;95293.56;;;6.57;39.21
6136;BME280;24008;42.664;23.372;2024-01-11T10:03:44;95306.34;;;7.30;37.99
6136;BME280;24008;42.664;23.372;2024-01-11T10:06:12;95247.31;;;6.64;38.55
6136;BME280;24008;42.664;23.372;2024-01-11T10:08:40;95273.69;;;6.50;39.18
6136;BME280;24008;42.664;23.372;2024-01-11T10:11:06;95233.47;;;6.32;40.14
6136;BME280;24008;42.664;23.372;2024-01-11T10:13:33;95266.75;;;6.53;39.52
6136;BME280;24008;42.664;23.372;2024-01-11T10:16:08;95265.66;;;6.44;39.07
6136;BME280;24008;42.664;23.372;2024-01-11T10:18:34;95266.06;;;6.12;39.85
6136;BME280;24008;42.664;23.372;2024-01-11T10:21:02;95202.59;;;5.87;40.13
6136;BME280;24008;42.664;23.372;2024-01-11T10:23:29;95235.03;;;5.30;41.39
6136;BME280;24008;42.664;23.372;2024-01-11T10:25:57;95246.91;;;4.88;41.98
6136;BME280;24008;42.664;23.372;2024-01-11T10:28:25;95251.31;;;4.29;43.59
6136;BME280;24008;42.664;23.372;2024-01-11T10:30:54;95223.88;;;3.35;45.53
6136;BME280;24008;42.664;23.372;2024-01-11T10:33:21;95207.50;;;2.97;45.80
6136;BME280;24008;42.664;23.372;2024-01-11T10:35:48;95120.03;;;1.70;47.66
6136;BME280;24008;42.664;23.372;2024-01-11T10:38:15;95203.22;;;2.03;49.06
6136;BME280;24008;42.664;23.372;2024-01-11T10:40:42;95226.41;;;1.59;50.17
6136;BME280;24008;42.664;23.372;2024-01-11T10:43:11;95228.22;;;1.21;51.49
6136;BME280;24008;42.664;23.372;2024-01-11T10:45:38;95217.38;;;0.85;52.71
6136;BME280;24008;42.664;23.372;2024-01-11T10:48:07;95085.22;;;0.06;54.26
6136;BME280;24008;42.664;23.372;2024-01-11T10:50:41;95212.31;;;0.85;54.22
6136;BME280;24008;42.664;23.372;2024-01-11T10:53:12;95212.19;;;0.88;54.43
6136;BME280;24008;42.664;23.372;2024-01-11T10:55:44;95147.84;;;0.29;54.97
6136;BME280;24008;42.664;23.372;2024-01-11T10:58:15;95146.34;;;0.44;55.80
6136;BME280;24008;42.664;23.372;2024-01-11T11:00:44;95199.03;;;0.83;55.51
6136;BME280;24008;42.664;23.372;2024-01-11T11:03:12;95150.81;;;0.56;55.10
6136;BME280;24008;42.664;23.372;2024-01-11T11:05:40;95128.94;;;0.39;56.31
6136;BME280;24008;42.664;23.372;2024-01-11T11:08:09;95039.00;;;-0.28;56.12
6136;BME280;24008;42.664;23.372;2024-01-11T11:10:38;95157.97;;;0.46;56.28
6136;BME280;24008;42.664;23.372;2024-01-11T11:13:05;94985.75;;;-0.53;56.26
6136;BME280;24008;42.664;23.372;2024-01-11T11:15:35;95164.28;;;0.36;56.62
6136;BME280;24008;42.664;23.372;2024-01-11T11:18:02;95162.09;;;0.47;57.00
6136;BME280;24008;42.664;23.372;2024-01-11T11:20:31;95154.56;;;0.47;57.01
6136;BME280;24008;42.664;23.372;2024-01-11T11:23:04;95146.75;;;0.34;57.22
6136;BME280;24008;42.664;23.372;2024-01-11T11:25:31;95099.78;;;-0.01;57.54
6136;BME280;24008;42.664;23.372;2024-01-11T11:27:59;95067.19;;;-0.03;57.41
6136;BME280;24008;42.664;23.372;2024-01-11T11:30:30;95062.69;;;0.04;57.10
6136;BME280;24008;42.664;23.372;2024-01-11T11:32:58;95024.69;;;-0.26;57.71
6136;BME280;24008;42.664;23.372;2024-01-11T11:35:25;95116.22;;;0.42;57.76
6136;BME280;24008;42.664;23.372;2024-01-11T11:37:55;95116.84;;;0.47;57.78
6136;BME280;24008;42.664;23.372;2024-01-11T11:40:32;95032.91;;;0.14;57.93
6136;BME280;24008;42.664;23.372;2024-01-11T11:43:01;95111.56;;;0.70;58.07
6136;BME280;24008;42.664;23.372;2024-01-11T11:45:28;95098.47;;;0.81;57.35
6136;BME280;24008;42.664;23.372;2024-01-11T11:47:55;95100.03;;;0.84;57.06
6136;BME280;24008;42.664;23.372;2024-01-11T11:50:23;95079.56;;;0.72;57.27
6136;BME280;24008;42.664;23.372;2024-01-11T11:52:53;95102.50;;;0.66;57.07
6136;BME280;24008;42.664;23.372;2024-01-11T11:55:22;94993.59;;;0.30;57.51
6136;BME280;24008;42.664;23.372;2024-01-11T11:57:49;95078.97;;;0.85;57.31
6136;BME280;24008;42.664;23.372;2024-01-11T12:00:16;95083.94;;;0.86;57.34
6136;BME280;24008;42.664;23.372;2024-01-11T12:02:43;95079.38;;;0.94;57.77
6136;BME280;24008;42.664;23.372;2024-01-11T12:05:10;94961.94;;;0.26;57.05
6136;BME280;24008;42.664;23.372;2024-01-11T12:07:38;94953.25;;;0.33;57.62
6136;BME280;24008;42.664;23.372;2024-01-11T12:10:06;95066.19;;;1.06;57.20
6136;BME280;24008;42.664;23.372;2024-01-11T12:12:34;95071.22;;;1.06;57.56
6136;BME280;24008;42.664;23.372;2024-01-11T12:15:02;94917.38;;;0.29;57.22
6136;BME280;24008;42.664;23.372;2024-01-11T12:17:29;95008.38;;;0.88;56.70
6136;BME280;24008;42.664;23.372;2024-01-11T12:19:56;94894.63;;;0.15;56.97
6136;BME280;24008;42.664;23.372;2024-01-11T12:22:23;95039.13;;;1.27;57.22
6136;BME280;24008;42.664;23.372;2024-01-11T12:24:51;94844.31;;;-0.01;56.96
6136;BME280;24008;42.664;23.372;2024-01-11T12:27:18;94835.94;;;-0.36;56.64
6136;BME280;24008;42.664;23.372;2024-01-11T12:29:45;94924.66;;;0.68;57.26
6136;BME280;24008;42.664;23.372;2024-01-11T12:32:14;95023.88;;;1.46;57.37
6136;BME280;24008;42.664;23.372;2024-01-11T12:34:43;94351.06;;;-2.74;57.74
6136;BME280;24008;42.664;23.372;2024-01-11T12:37:10;94895.94;;;0.72;57.09
6136;BME280;24008;42.664;23.372;2024-01-11T12:39:38;94556.50;;;-1.36;57.16
6136;BME280;24008;42.664;23.372;2024-01-11T12:42:06;94558.25;;;-1.21;56.77
6136;BME280;24008;42.664;23.372;2024-01-11T12:44:34;95005.69;;;1.72;56.41
6136;BME280;24008;42.664;23.372;2024-01-11T12:47:03;94854.75;;;0.91;56.77
6136;BME280;24008;42.664;23.372;2024-01-11T12:49:30;94753.44;;;0.40;55.95
6136;BME280;24008;42.664;23.372;2024-01-11T12:51:57;94996.59;;;2.01;56.35
6136;BME280;24008;42.664;23.372;2024-01-11T12:54:24;94991.03;;;2.10;56.45
6136;BME280;24008;42.664;23.372;2024-01-11T12:56:50;94859.06;;;1.20;56.73
6136;BME280;24008;42.664;23.372;2024-01-11T12:59:19;94762.38;;;0.93;56.23
6136;BME280;24008;42.664;23.372;2024-01-11T13:01:45;94981.06;;;2.39;55.90
6136;BME280;24008;42.664;23.372;2024-01-11T13:04:12;94734.88;;;0.58;55.73
6136;BME280;24008;42.664;23.372;2024-01-11T13:06:39;94898.31;;;1.86;56.21